createdAt,value
2023-03-03T00:01:17.761Z,96443.97
2023-03-03T00:03:44.586Z,96445.44
2023-03-03T00:06:14.149Z,96448.31
2023-03-03T00:08:41.225Z,96422.81
2023-03-03T00:11:08.079Z,96419.97
2023-03-03T00:13:43.912Z,96449.72
2023-03-03T00:16:17.134Z,96444.81
2023-03-03T00:18:46.738Z,96424.59
2023-03-03T00:21:33.151Z,96446.66
2023-03-03T00:24:44.306Z,96447.75
2023-03-03T00:27:34.430Z,96447.50
2023-03-03T00:30:01.222Z,96447.38
2023-03-03T00:32:43.874Z,96451.81
2023-03-03T00:35:30.195Z,96453.63
2023-03-03T00:38:00.088Z,96456.50
2023-03-03T00:40:37.946Z,96440.88
2023-03-03T00:43:28.111Z,96460.50
2023-03-03T00:45:56.399Z,96446.31
2023-03-03T00:48:25.955Z,96450.50
2023-03-03T00:50:54.928Z,96416.28
2023-03-03T00:53:23.732Z,96423.78
2023-03-03T00:55:51.705Z,96447.75
2023-03-03T00:58:21.713Z,96450.88
2023-03-03T01:00:54.098Z,96408.88
2023-03-03T01:03:26.480Z,96428.84
2023-03-03T01:05:54.607Z,96451.50
2023-03-03T01:08:22.202Z,96453.59
2023-03-03T01:10:58.764Z,96446.81
2023-03-03T01:13:30.166Z,96450.09
2023-03-03T01:15:57.681Z,96417.16
2023-03-03T01:18:24.534Z,96438.13
2023-03-03T01:20:51.476Z,96429.88
2023-03-03T01:23:18.084Z,96426.97
2023-03-03T01:25:44.722Z,96435.16
2023-03-03T01:28:11.649Z,96440.47
2023-03-03T01:30:38.307Z,96408.63
2023-03-03T01:33:04.960Z,96400.91
2023-03-03T01:35:31.788Z,96447.66
2023-03-03T01:37:59.022Z,96433.34
2023-03-03T01:40:29.727Z,96417.50
2023-03-03T01:42:58.950Z,96419.44
2023-03-03T01:45:29.658Z,96442.44
2023-03-03T01:48:11.061Z,96444.72
2023-03-03T01:51:15.989Z,96434.13
2023-03-03T02:10:33.205Z,96385.28
2023-03-03T02:13:00.047Z,96419.13
2023-03-03T02:15:37.839Z,96425.59
2023-03-03T02:18:09.399Z,96395.34
2023-03-03T02:21:03.101Z,96429.53
2023-03-03T02:23:51.651Z,96433.75
2023-03-03T02:26:23.052Z,96426.38
2023-03-03T02:28:54.521Z,96431.44
2023-03-03T02:31:24.116Z,96433.25
2023-03-03T02:33:52.718Z,96408.75
2023-03-03T02:36:24.936Z,96432.63
2023-03-03T02:39:12.994Z,96429.16
2023-03-03T02:41:58.892Z,96430.41
2023-03-03T02:44:32.725Z,96422.84
2023-03-03T02:47:00.081Z,96425.13
2023-03-03T02:49:32.220Z,96384.34
2023-03-03T02:52:00.664Z,96414.50
2023-03-03T02:54:30.229Z,96424.84
2023-03-03T02:56:58.656Z,96425.28
2023-03-03T02:59:26.790Z,96424.66
2023-03-03T03:01:55.215Z,96432.00
2023-03-03T03:04:27.779Z,96433.53
2023-03-03T03:06:55.938Z,96429.75
2023-03-03T03:09:25.586Z,96430.63
2023-03-03T03:11:53.729Z,96424.53
2023-03-03T03:14:23.999Z,96419.28
2023-03-03T03:16:52.354Z,96428.06
2023-03-03T03:19:19.372Z,96408.00
2023-03-03T03:21:46.610Z,96429.28
2023-03-03T03:24:13.292Z,96411.59
2023-03-03T03:26:44.398Z,96409.16
2023-03-03T03:29:11.156Z,96435.09
2023-03-03T03:31:39.298Z,96398.53
2023-03-03T03:34:05.997Z,96407.16
2023-03-03T03:36:33.631Z,96408.63
2023-03-03T03:39:02.854Z,96441.28
2023-03-03T03:41:30.340Z,96436.09
2023-03-03T03:43:56.897Z,96400.09
2023-03-03T03:46:24.261Z,96422.81
2023-03-03T03:48:50.933Z,96431.25
2023-03-03T03:51:19.815Z,96428.28
2023-03-03T03:53:46.528Z,96408.25
2023-03-03T03:56:13.183Z,96423.84
2023-03-03T03:58:42.128Z,96408.63
2023-03-03T04:01:11.104Z,96407.75
2023-03-03T04:03:43.390Z,96400.25
2023-03-03T04:06:13.145Z,96431.03
2023-03-03T04:08:39.793Z,96427.81
2023-03-03T04:11:07.454Z,96418.50
2023-03-03T04:13:35.292Z,96433.34
2023-03-03T04:16:05.223Z,96379.44
2023-03-03T04:18:31.911Z,96442.47
2023-03-03T04:20:59.241Z,96409.47
2023-03-03T04:23:27.024Z,96442.53
2023-03-03T04:25:53.867Z,96440.31
2023-03-03T04:28:22.272Z,96434.25
2023-03-03T04:30:50.236Z,96423.50
2023-03-03T04:33:18.538Z,96415.66
2023-03-03T04:35:46.101Z,96449.84
2023-03-03T04:38:12.973Z,96396.94
2023-03-03T04:40:41.878Z,96430.03
2023-03-03T04:43:10.101Z,96440.28
2023-03-03T04:45:37.304Z,96416.75
2023-03-03T04:48:04.577Z,96454.59
2023-03-03T04:50:31.768Z,96446.06
2023-03-03T04:52:58.458Z,96438.09
2023-03-03T04:55:25.261Z,96417.03
2023-03-03T04:57:51.946Z,96433.03
2023-03-03T05:00:19.442Z,96438.56
2023-03-03T05:02:48.714Z,96465.88
2023-03-03T05:05:15.463Z,96439.25
2023-03-03T05:07:42.064Z,96455.16
2023-03-03T05:10:09.325Z,96424.47
2023-03-03T05:12:36.106Z,96462.72
2023-03-03T05:15:02.976Z,96423.06
2023-03-03T05:17:29.574Z,96454.97
2023-03-03T05:19:57.323Z,96455.03
2023-03-03T05:22:24.474Z,96431.03
2023-03-03T05:24:51.322Z,96459.41
2023-03-03T05:27:18.159Z,96471.09
2023-03-03T05:29:44.952Z,96431.19
2023-03-03T05:32:11.568Z,96463.66
2023-03-03T05:34:40.697Z,96433.16
2023-03-03T05:37:07.329Z,96465.56
2023-03-03T05:39:35.139Z,96455.22
2023-03-03T05:42:02.013Z,96463.13
2023-03-03T05:44:28.743Z,96465.09
2023-03-03T05:46:56.666Z,96455.16
2023-03-03T05:49:23.399Z,96461.84
2023-03-03T05:51:50.013Z,96468.19
2023-03-03T05:54:16.649Z,96472.69
2023-03-03T05:56:43.292Z,96461.84
2023-03-03T05:59:09.921Z,96459.44
2023-03-03T06:01:36.580Z,96486.78
2023-03-03T06:04:03.398Z,96483.00
2023-03-03T06:06:30.138Z,96457.66
2023-03-03T06:08:57.327Z,96491.16
2023-03-03T06:11:24.158Z,96491.59
2023-03-03T06:13:51.141Z,96467.38
2023-03-03T06:16:18.200Z,96487.00
2023-03-03T06:18:44.879Z,96478.06
2023-03-03T06:21:11.547Z,96503.72
2023-03-03T06:23:38.140Z,96480.31
2023-03-03T06:26:04.949Z,96506.91
2023-03-03T06:28:31.555Z,96502.09
2023-03-03T06:30:58.206Z,96514.66
2023-03-03T06:33:24.841Z,96506.69
2023-03-03T06:35:52.887Z,96502.78
2023-03-03T06:38:20.058Z,96523.38
2023-03-03T06:40:47.603Z,96501.22
2023-03-03T06:43:14.503Z,96522.41
2023-03-03T06:45:41.258Z,96518.81
2023-03-03T06:48:07.932Z,96525.59
2023-03-03T06:50:34.952Z,96493.25
2023-03-03T06:53:21.856Z,96529.38
2023-03-03T06:55:48.730Z,96495.59
2023-03-03T06:58:20.322Z,96532.72
2023-03-03T07:01:10.283Z,96527.06
2023-03-03T07:03:36.869Z,96527.31
2023-03-03T07:06:16.724Z,96552.03
2023-03-03T07:08:43.315Z,96553.09
2023-03-03T07:11:15.638Z,96555.22
2023-03-03T07:13:46.487Z,96535.28
2023-03-03T07:16:15.298Z,96574.16
2023-03-03T07:18:50.939Z,96537.69
2023-03-03T07:21:21.034Z,96575.22
2023-03-03T07:23:50.448Z,96538.69
2023-03-03T07:26:33.266Z,96579.84
2023-03-03T07:29:24.212Z,96571.81
2023-03-03T07:31:51.308Z,96576.88
2023-03-03T07:34:22.318Z,96604.66
2023-03-03T07:36:53.523Z,96607.13
2023-03-03T07:39:30.516Z,96609.88
2023-03-03T07:42:09.534Z,96615.94
2023-03-03T07:44:38.047Z,96587.28
2023-03-03T07:47:18.842Z,96618.78
2023-03-03T07:49:46.775Z,96630.03
2023-03-03T07:52:43.338Z,96626.56
2023-03-03T07:55:32.030Z,96622.25
2023-03-03T07:58:12.747Z,96588.34
2023-03-03T08:00:39.317Z,96639.97
2023-03-03T08:03:17.000Z,96622.91
2023-03-03T08:05:47.002Z,96634.00
2023-03-03T08:08:31.030Z,96640.50
2023-03-03T08:10:59.897Z,96596.44
2023-03-03T08:13:39.645Z,96629.34
2023-03-03T08:16:09.402Z,96628.38
2023-03-03T08:18:39.818Z,96634.28
2023-03-03T08:21:14.590Z,96597.63
2023-03-03T08:23:41.452Z,96609.72
2023-03-03T08:26:08.227Z,96563.63
2023-03-03T08:28:34.873Z,96593.88
2023-03-03T08:31:15.271Z,96619.44
2023-03-03T08:33:47.061Z,96536.84
2023-03-03T08:36:14.642Z,96607.03
2023-03-03T08:38:41.567Z,96633.91
2023-03-03T08:41:08.578Z,96630.78
2023-03-03T08:43:35.295Z,96624.31
2023-03-03T08:46:03.749Z,96586.53
2023-03-03T08:48:30.616Z,96569.59
2023-03-03T08:50:58.038Z,96621.78
2023-03-03T08:53:24.724Z,96586.59
2023-03-03T08:55:51.496Z,96626.53
2023-03-03T08:58:21.197Z,96626.22
2023-03-03T09:00:50.240Z,96620.53
2023-03-03T09:03:17.804Z,96611.41
2023-03-03T09:05:45.183Z,96605.44
2023-03-03T09:08:12.179Z,96606.44
2023-03-03T09:10:39.142Z,96604.66
2023-03-03T09:13:18.948Z,96626.28
2023-03-03T09:15:48.995Z,96619.25
2023-03-03T09:18:17.617Z,96626.81
2023-03-03T09:20:53.047Z,96622.63
2023-03-03T09:23:35.000Z,96631.97
2023-03-03T09:26:19.878Z,96633.75
2023-03-03T09:28:46.520Z,96613.47
2023-03-03T09:31:54.557Z,96634.47
2023-03-03T09:34:27.886Z,96628.28
2023-03-03T09:36:55.935Z,96630.88
2023-03-03T09:39:25.557Z,96628.25
2023-03-03T09:42:02.941Z,96628.50
2023-03-03T09:44:51.343Z,96622.22
2023-03-03T09:47:55.972Z,96627.63
2023-03-03T09:50:34.556Z,96595.56
2023-03-03T09:53:04.073Z,96628.53
2023-03-03T09:55:47.098Z,96626.44
2023-03-03T09:58:23.152Z,96639.00
2023-03-03T10:01:13.612Z,96641.47
2023-03-03T10:03:52.486Z,96654.31
2023-03-03T10:06:40.237Z,96652.34
2023-03-03T10:09:25.440Z,96657.56
2023-03-03T10:11:57.804Z,96656.56
2023-03-03T10:14:43.283Z,96646.41
2023-03-03T10:17:17.076Z,96619.69
2023-03-03T10:19:55.892Z,96652.31
2023-03-03T10:22:28.662Z,96649.72
2023-03-03T10:25:16.609Z,96650.69
2023-03-03T10:28:04.976Z,96595.72
2023-03-03T10:31:02.555Z,96617.75
2023-03-03T10:34:16.841Z,96649.94
2023-03-03T10:36:55.325Z,96654.06
2023-03-03T10:39:29.841Z,96658.59
2023-03-03T10:42:30.586Z,96661.63
2023-03-03T10:45:35.407Z,96659.91
2023-03-03T10:48:14.163Z,96653.56
2023-03-03T10:51:00.017Z,96655.31
2023-03-03T10:53:40.407Z,96628.38
2023-03-03T10:56:51.802Z,96643.88
2023-03-03T10:59:36.261Z,96649.09
2023-03-03T11:02:25.257Z,96645.84
2023-03-03T11:05:00.201Z,96641.13
2023-03-03T11:07:42.771Z,96657.66
2023-03-03T11:10:09.459Z,96650.09
2023-03-03T11:12:47.688Z,96653.31
2023-03-03T11:15:35.992Z,96651.06
2023-03-03T11:18:30.768Z,96649.19
2023-03-03T11:21:19.318Z,96643.97
2023-03-03T11:23:52.009Z,96644.72
2023-03-03T11:26:24.496Z,96640.59
2023-03-03T11:29:07.797Z,96629.44
2023-03-03T11:31:48.574Z,96633.06
2023-03-03T11:34:23.566Z,96631.88
2023-03-03T11:37:01.830Z,96603.00
2023-03-03T11:39:28.537Z,96609.34
2023-03-03T11:42:24.024Z,96627.69
2023-03-03T11:45:02.327Z,96593.00
2023-03-03T11:47:38.481Z,96612.25
2023-03-03T11:50:16.026Z,96615.53
2023-03-03T11:53:05.563Z,96599.06
2023-03-03T11:55:41.333Z,96610.00
2023-03-03T11:58:25.038Z,96577.75
2023-03-03T12:00:58.687Z,96602.44
2023-03-03T12:03:39.503Z,96595.22
2023-03-03T12:06:06.328Z,96601.97
2023-03-03T12:09:14.132Z,96544.28
2023-03-03T12:11:59.939Z,96589.00
2023-03-03T12:14:38.543Z,96560.44
2023-03-03T12:17:19.750Z,96584.38
2023-03-03T12:20:17.366Z,96590.91
2023-03-03T12:23:06.463Z,96592.31
2023-03-03T12:25:44.206Z,96569.66
2023-03-03T12:28:25.583Z,96604.34
2023-03-03T12:31:04.954Z,96603.09
2023-03-03T12:33:38.000Z,96599.31
2023-03-03T12:36:41.808Z,96601.00
2023-03-03T12:39:34.095Z,96577.47
2023-03-03T12:42:22.149Z,96597.63
2023-03-03T12:45:20.186Z,96595.31
2023-03-03T12:47:58.810Z,96585.16
2023-03-03T12:50:48.907Z,96580.38
2023-03-03T12:53:36.917Z,96585.56
2023-03-03T12:56:05.148Z,96547.19
2023-03-03T12:59:14.272Z,96599.16
2023-03-03T13:01:56.666Z,96586.47
2023-03-03T13:04:47.117Z,96568.28
2023-03-03T13:07:28.946Z,96590.97
2023-03-03T13:10:30.996Z,96586.88
2023-03-03T13:13:17.538Z,96555.78
2023-03-03T13:15:55.505Z,96571.81
2023-03-03T13:18:34.549Z,96575.31
2023-03-03T13:21:24.324Z,96574.69
2023-03-03T13:24:21.365Z,96586.88
2023-03-03T13:26:57.858Z,96580.22
2023-03-03T13:29:33.540Z,96579.94
2023-03-03T13:32:05.444Z,96527.97
2023-03-03T13:34:57.003Z,96575.94
2023-03-03T13:37:29.828Z,96578.41
2023-03-03T13:40:16.715Z,96577.25
2023-03-03T13:42:50.025Z,96571.66
2023-03-03T13:45:31.147Z,96570.44
2023-03-03T13:48:06.928Z,96569.13
2023-03-03T13:50:38.525Z,96572.78
2023-03-03T13:53:53.201Z,96569.44
2023-03-03T13:56:35.106Z,96536.47
2023-03-03T13:59:20.356Z,96569.34
2023-03-03T14:02:01.485Z,96568.91
2023-03-03T14:04:34.293Z,96570.91
2023-03-03T14:07:08.973Z,96561.53
2023-03-03T14:09:44.172Z,96565.34
2023-03-03T14:12:33.757Z,96563.19
2023-03-03T14:15:27.908Z,96525.88
2023-03-03T14:18:14.723Z,96559.00
2023-03-03T14:20:47.163Z,96558.72
2023-03-03T14:23:25.230Z,96557.09
2023-03-03T14:25:59.141Z,96542.84
2023-03-03T14:28:29.426Z,96551.94
2023-03-03T14:30:58.196Z,96553.47
2023-03-03T14:33:32.267Z,96528.97
2023-03-03T14:35:58.995Z,96549.53
2023-03-03T14:38:47.056Z,96554.19
2023-03-03T14:41:16.172Z,96551.75
2023-03-03T14:43:47.680Z,96538.81
2023-03-03T14:46:33.519Z,96550.53
2023-03-03T14:49:14.637Z,96539.16
2023-03-03T14:51:47.575Z,96542.13
2023-03-03T14:54:47.903Z,96543.56
2023-03-03T14:57:18.619Z,96532.56
2023-03-03T15:00:14.965Z,96537.56
2023-03-03T15:02:59.900Z,96516.84
2023-03-03T15:05:28.645Z,96516.19
2023-03-03T15:07:59.398Z,96536.06
2023-03-03T15:10:38.015Z,96509.91
2023-03-03T15:13:30.854Z,96533.72
2023-03-03T15:16:00.593Z,96529.25
2023-03-03T15:18:28.534Z,96517.88
2023-03-03T15:21:06.922Z,96527.97
2023-03-03T15:23:45.268Z,96541.66
2023-03-03T15:26:28.411Z,96508.69
2023-03-03T15:29:07.267Z,96539.25
2023-03-03T15:31:40.925Z,96531.47
2023-03-03T15:34:32.305Z,96540.25
2023-03-03T15:37:17.608Z,96533.81
2023-03-03T15:40:03.972Z,96540.00
2023-03-03T15:42:48.938Z,96544.28
2023-03-03T15:45:27.016Z,96534.84
2023-03-03T15:48:18.175Z,96533.53
2023-03-03T15:51:03.504Z,96534.50
2023-03-03T15:53:58.285Z,96528.47
2023-03-03T15:56:27.750Z,96527.28
2023-03-03T15:59:31.324Z,96521.81
2023-03-03T16:02:04.008Z,96528.78
2023-03-03T16:04:39.074Z,96521.88
2023-03-03T16:07:30.505Z,96524.06
2023-03-03T16:10:21.073Z,96529.41
2023-03-03T16:12:54.589Z,96510.78
2023-03-03T16:15:24.082Z,96527.31
2023-03-03T16:18:09.694Z,96528.53
2023-03-03T16:20:58.335Z,96531.88
2023-03-03T16:23:30.912Z,96532.66
2023-03-03T16:26:19.339Z,96537.06
2023-03-03T16:29:08.320Z,96539.19
2023-03-03T16:31:42.864Z,96527.56
2023-03-03T16:34:31.185Z,96545.06
2023-03-03T16:37:09.530Z,96558.13
2023-03-03T16:39:56.870Z,96556.44
2023-03-03T16:42:33.949Z,96532.34
2023-03-03T16:45:16.910Z,96564.13
2023-03-03T16:47:58.819Z,96573.63
2023-03-03T16:50:39.720Z,96562.00
2023-03-03T16:53:19.075Z,96574.06
2023-03-03T16:56:14.687Z,96575.75
2023-03-03T16:58:53.613Z,96587.25
2023-03-03T17:01:36.757Z,96586.72
2023-03-03T17:04:15.610Z,96588.34
2023-03-03T17:06:53.759Z,96591.47
2023-03-03T17:09:53.143Z,96592.06
2023-03-03T17:12:25.874Z,96597.59
2023-03-03T17:15:31.092Z,96600.03
2023-03-03T17:18:12.343Z,96577.16
2023-03-03T17:20:55.158Z,96581.88
2023-03-03T17:23:27.594Z,96612.13
2023-03-03T17:26:04.208Z,96588.13
2023-03-03T17:28:47.053Z,96605.59
2023-03-03T17:31:44.023Z,96586.38
2023-03-03T17:34:30.118Z,96590.31
2023-03-03T17:37:07.060Z,96609.09
2023-03-03T17:39:48.931Z,96626.78
2023-03-03T17:42:30.344Z,96604.91
2023-03-03T17:44:59.698Z,96629.91
2023-03-03T17:47:57.530Z,96629.94
2023-03-03T17:50:27.108Z,96634.38
2023-03-03T17:53:15.607Z,96632.50
2023-03-03T17:56:05.945Z,96636.13
2023-03-03T17:59:04.999Z,96622.81
2023-03-03T18:01:56.423Z,96630.34
2023-03-03T18:04:54.693Z,96630.38
2023-03-03T18:07:45.482Z,96628.81
2023-03-03T18:10:49.840Z,96629.56
2023-03-03T18:13:35.689Z,96596.78
2023-03-03T18:16:40.420Z,96635.59
2023-03-03T18:19:25.210Z,96637.66
2023-03-03T18:22:11.285Z,96641.78
2023-03-03T18:24:51.200Z,96643.34
2023-03-03T18:27:25.343Z,96649.28
2023-03-03T18:30:15.327Z,96652.69
2023-03-03T18:33:06.203Z,96633.81
2023-03-03T18:35:32.818Z,96649.06
2023-03-03T18:38:24.535Z,96642.75
2023-03-03T18:40:51.105Z,96641.69
2023-03-03T18:43:45.539Z,96649.09
2023-03-03T18:46:22.728Z,96650.38
2023-03-03T18:48:55.511Z,96649.69
2023-03-03T18:51:34.366Z,96655.16
2023-03-03T18:54:30.565Z,96660.25
2023-03-03T18:56:57.457Z,96651.16
2023-03-03T18:59:36.493Z,96659.13
2023-03-03T19:02:21.158Z,96658.38
2023-03-03T19:05:11.510Z,96632.28
2023-03-03T19:07:40.981Z,96650.13
2023-03-03T19:10:19.920Z,96654.81
2023-03-03T19:12:57.687Z,96649.00
2023-03-03T19:15:30.289Z,96657.25
2023-03-03T19:18:20.052Z,96657.41
2023-03-03T19:20:55.790Z,96652.56
2023-03-03T19:24:02.625Z,96653.25
2023-03-03T19:26:47.915Z,96651.00
2023-03-03T19:29:39.245Z,96645.81
2023-03-03T19:32:14.992Z,96647.25
2023-03-03T19:35:05.897Z,96627.25
2023-03-03T19:38:02.272Z,96613.09
2023-03-03T19:40:28.924Z,96650.06
2023-03-03T19:43:00.556Z,96657.72
2023-03-03T19:45:46.920Z,96637.84
2023-03-03T19:48:22.955Z,96660.19
2023-03-03T19:51:12.919Z,96667.13
2023-03-03T19:53:57.996Z,96667.91
2023-03-03T19:56:30.512Z,96668.16
2023-03-03T19:59:18.654Z,96673.09
2023-03-03T20:01:54.156Z,96677.47
2023-03-03T20:04:26.969Z,96685.59
2023-03-03T20:07:12.573Z,96681.44
2023-03-03T20:09:39.121Z,96683.44
2023-03-03T20:12:20.979Z,96676.22
2023-03-03T20:14:50.410Z,96682.25
2023-03-03T20:17:44.747Z,96682.19
2023-03-03T20:20:23.576Z,96684.63
2023-03-03T20:23:20.152Z,96686.34
2023-03-03T20:26:18.111Z,96687.66
2023-03-03T20:28:56.800Z,96663.97
2023-03-03T20:31:36.424Z,96684.69
2023-03-03T20:34:21.487Z,96692.81
2023-03-03T20:36:57.173Z,96691.69
2023-03-03T20:39:42.360Z,96687.53
2023-03-03T20:42:24.220Z,96678.59
2023-03-03T20:45:21.205Z,96693.91
2023-03-03T20:48:06.650Z,96705.28
2023-03-03T20:51:02.495Z,96703.47
2023-03-03T20:53:51.245Z,96700.00
2023-03-03T20:56:32.531Z,96702.22
2023-03-03T20:59:13.018Z,96684.47
2023-03-03T21:01:53.187Z,96704.16
2023-03-03T21:04:29.064Z,96696.94
2023-03-03T21:06:56.740Z,96673.34
2023-03-03T21:09:33.191Z,96703.47
2023-03-03T21:12:01.964Z,96703.00
2023-03-03T21:14:31.491Z,96694.53
2023-03-03T21:17:25.483Z,96687.78
2023-03-03T21:19:52.138Z,96658.13
2023-03-03T21:22:18.746Z,96663.16
2023-03-03T21:24:59.237Z,96688.56
2023-03-03T21:27:31.763Z,96693.19
2023-03-03T21:30:05.463Z,96691.38
2023-03-03T21:32:51.314Z,96695.50
2023-03-03T21:35:22.232Z,96696.53
2023-03-03T21:37:54.876Z,96686.25
2023-03-03T21:40:29.920Z,96674.44
2023-03-03T21:43:01.362Z,96687.97
2023-03-03T21:45:30.126Z,96687.28
2023-03-03T21:47:59.689Z,96671.84
2023-03-03T21:50:31.216Z,96696.22
2023-03-03T21:52:57.865Z,96683.69
2023-03-03T21:55:26.540Z,96660.53
2023-03-03T21:57:53.379Z,96680.66
2023-03-03T22:00:20.333Z,96649.22
2023-03-03T22:02:46.992Z,96665.69
2023-03-03T22:05:13.654Z,96686.34
2023-03-03T22:07:40.302Z,96660.75
2023-03-03T22:10:07.713Z,96652.16
2023-03-03T22:12:34.320Z,96662.31
2023-03-03T22:15:00.969Z,96636.31
2023-03-03T22:17:28.142Z,96652.13
2023-03-03T22:19:55.644Z,96650.75
2023-03-03T22:22:22.416Z,96671.78
2023-03-03T22:24:49.938Z,96633.63
2023-03-03T22:27:16.573Z,96651.75
2023-03-03T22:29:43.148Z,96632.94
2023-03-03T22:32:09.970Z,96626.06
2023-03-03T22:34:36.693Z,96664.91
2023-03-03T22:37:03.329Z,96635.50
2023-03-03T22:39:29.978Z,96617.22
2023-03-03T22:41:56.569Z,96625.28
2023-03-03T22:44:23.217Z,96659.25
2023-03-03T22:46:49.809Z,96630.75
2023-03-03T22:49:16.445Z,96664.09
2023-03-03T22:51:43.046Z,96656.81
2023-03-03T22:54:09.666Z,96629.94
2023-03-03T22:56:36.244Z,96659.56
2023-03-03T22:59:02.867Z,96633.97
2023-03-03T23:01:30.152Z,96649.22
2023-03-03T23:03:56.802Z,96620.22
2023-03-03T23:06:23.426Z,96637.31
2023-03-03T23:08:50.063Z,96619.69
2023-03-03T23:11:16.678Z,96625.66
2023-03-03T23:13:43.292Z,96630.66
2023-03-03T23:16:10.021Z,96620.88
2023-03-03T23:18:36.647Z,96635.09
2023-03-03T23:21:03.407Z,96609.00
2023-03-03T23:23:30.602Z,96655.13
2023-03-03T23:25:57.360Z,96618.47
2023-03-03T23:28:24.007Z,96626.41
2023-03-03T23:30:52.182Z,96644.38
2023-03-03T23:33:19.851Z,96644.81
2023-03-03T23:35:46.599Z,96661.97
2023-03-03T23:38:15.532Z,96612.09
2023-03-03T23:40:43.138Z,96661.81
2023-03-03T23:43:10.165Z,96631.63
2023-03-03T23:45:36.786Z,96628.25
2023-03-03T23:48:03.733Z,96614.50
2023-03-03T23:50:32.796Z,96643.53
2023-03-03T23:52:59.512Z,96627.03
2023-03-03T23:55:26.088Z,96628.03
2023-03-03T23:57:52.754Z,96662.16
